Time,TemperatureF,DewpointF,PressureIn,WindDirection,WindDirectionDegrees,WindSpeedMPH,WindSpeedGustMPH,Humidity,HourlyPrecipIn,Conditions,Clouds,dailyrainin,SolarRadiationWatts/m^2,SoftwareType,DateUTC
2013-07-18 00:10:00,81.0,75.0,30.05,West,278,3.0,-999.0,81,-99.99,,,0.00,0,weatherlink.com 1.10,2013-07-18 04:10:00,
2013-07-18 00:25:00,80.8,75.0,30.04,WSW,242,1.0,-999.0,82,-99.99,,,0.00,0,weatherlink.com 1.10,2013-07-18 04:25:00,
2013-07-18 00:40:00,80.5,75.0,30.03,West,259,1.0,-999.0,82,-99.99,,,0.00,0,weatherlink.com 1.10,2013-07-18 04:40:00,
2013-07-18 00:55:00,80.1,75.0,30.03,West,273,1.0,-999.0,83,-99.99,,,0.00,0,weatherlink.com 1.10,2013-07-18 04:55:00,
2013-07-18 01:11:00,79.8,74.0,30.03,WSW,238,1.0,-999.0,83,-99.99,,,0.00,0,weatherlink.com 1.10,2013-07-18 05:11:00,
2013-07-18 01:25:00,79.5,74.0,30.03,WSW,257,4.0,-999.0,84,-99.99,,,0.00,0,weatherlink.com 1.10,2013-07-18 05:25:00,
2013-07-18 01:40:00,79.3,74.0,30.03,WSW,254,1.0,-999.0,84,-99.99,,,0.00,0,weatherlink.com 1.10,2013-07-18 05:40:00,
2013-07-18 01:55:00,79.0,74.0,30.04,WNW,287,5.0,-999.0,85,-99.99,,,0.00,0,weatherlink.com 1.10,2013-07-18 05:55:00,
2013-07-18 02:10:00,78.8,74.0,30.04,WNW,287,0.0,-999.0,85,-99.99,,,0.00,0,weatherlink.com 1.10,2013-07-18 06:10:00,
2013-07-18 02:25:00,78.4,74.0,30.03,WNW,287,4.0,-999.0,86,-99.99,,,0.00,0,weatherlink.com 1.10,2013-07-18 06:25:00,
2013-07-18 02:40:00,77.9,74.0,30.03,WNW,286,0.0,-999.0,87,-99.99,,,0.00,0,weatherlink.com 1.10,2013-07-18 06:40:00,
2013-07-18 02:55:00,77.6,74.0,30.03,WNW,284,0.0,-999.0,87,-99.99,,,0.00,0,weatherlink.com 1.10,2013-07-18 06:55:00,
2013-07-18 03:10:00,77.3,74.0,30.03,WNW,283,1.0,-999.0,88,-99.99,,,0.00,0,weatherlink.com 1.10,2013-07-18 07:10:00,
2013-07-18 03:25:00,77.0,73.0,30.03,WNW,283,2.0,-999.0,88,-99.99,,,0.00,0,weatherlink.com 1.10,2013-07-18 07:25:00,
2013-07-18 03:40:00,76.8,73.0,30.03,West,281,1.0,-999.0,89,-99.99,,,0.00,0,weatherlink.com 1.10,2013-07-18 07:40:00,
2013-07-18 03:55:00,76.6,74.0,30.03,West,278,1.0,-999.0,90,-99.99,,,0.00,0,weatherlink.com 1.10,2013-07-18 07:55:00,
2013-07-18 04:10:00,76.4,73.0,30.03,West,277,1.0,-999.0,90,-99.99,,,0.00,0,weatherlink.com 1.10,2013-07-18 08:10:00,
2013-07-18 04:25:00,76.3,73.0,30.03,West,277,1.0,-999.0,90,-99.99,,,0.00,0,weatherlink.com 1.10,2013-07-18 08:25:00,
2013-07-18 04:40:00,76.1,73.0,30.02,West,277,0.0,-999.0,90,-99.99,,,0.00,0,weatherlink.com 1.10,2013-07-18 08:40:00,
2013-07-18 04:55:00,76.0,73.0,30.03,West,277,0.0,-999.0,91,-99.99,,,0.00,0,weatherlink.com 1.10,2013-07-18 08:55:00,
2013-07-18 05:10:00,75.9,73.0,30.03,West,277,1.0,-999.0,91,-99.99,,,0.00,0,weatherlink.com 1.10,2013-07-18 09:10:00,
2013-07-18 05:25:00,75.7,73.0,30.03,West,276,1.0,-999.0,91,-99.99,,,0.00,0,weatherlink.com 1.10,2013-07-18 09:25:00,
2013-07-18 05:40:00,75.6,73.0,30.03,West,276,1.0,-999.0,91,-99.99,,,0.00,0,weatherlink.com 1.10,2013-07-18 09:40:00,
2013-07-18 05:55:00,75.5,73.0,30.03,West,265,0.0,-999.0,91,-99.99,,,0.00,9,weatherlink.com 1.10,2013-07-18 09:55:00,
2013-07-18 06:10:00,75.4,73.0,30.02,West,265,1.0,-999.0,91,-99.99,,,0.00,16,weatherlink.com 1.10,2013-07-18 10:10:00,
2013-07-18 06:26:00,75.5,73.0,30.02,West,267,1.0,-999.0,91,-99.99,,,0.00,25,weatherlink.com 1.10,2013-07-18 10:26:00,
2013-07-18 06:41:00,75.9,73.0,30.02,WSW,250,1.0,-999.0,91,-99.99,,,0.00,33,weatherlink.com 1.10,2013-07-18 10:41:00,
2013-07-18 06:56:00,76.2,74.0,30.03,West,259,2.0,-999.0,91,-99.99,,,0.00,40,weatherlink.com 1.10,2013-07-18 10:56:00,
2013-07-18 07:11:00,76.9,74.0,30.03,West,264,4.0,-999.0,90,-99.99,,,0.00,47,weatherlink.com 1.10,2013-07-18 11:11:00,
2013-07-18 07:26:00,77.8,74.0,30.03,WSW,247,1.0,-999.0,89,-99.99,,,0.00,65,weatherlink.com 1.10,2013-07-18 11:26:00,
2013-07-18 07:41:00,78.7,75.0,30.02,West,276,6.0,-999.0,87,-99.99,,,0.00,148,weatherlink.com 1.10,2013-07-18 11:41:00,
2013-07-18 07:56:00,79.5,75.0,30.03,West,273,2.0,-999.0,85,-99.99,,,0.00,251,weatherlink.com 1.10,2013-07-18 11:56:00,
2013-07-18 08:11:00,80.2,75.0,30.03,WNW,284,0.0,-999.0,84,-99.99,,,0.00,301,weatherlink.com 1.10,2013-07-18 12:11:00,
2013-07-18 08:26:00,81.0,75.0,30.03,West,271,5.0,-999.0,83,-99.99,,,0.00,366,weatherlink.com 1.10,2013-07-18 12:26:00,
2013-07-18 08:41:00,81.5,76.0,30.03,West,262,5.0,-999.0,82,-99.99,,,0.00,394,weatherlink.com 1.10,2013-07-18 12:41:00,
2013-07-18 08:56:00,82.5,76.0,30.03,SW,236,2.0,-999.0,81,-99.99,,,0.00,446,weatherlink.com 1.10,2013-07-18 12:56:00,
2013-07-18 09:11:00,83.3,76.0,30.03,WSW,257,6.0,-999.0,79,-99.99,,,0.00,438,weatherlink.com 1.10,2013-07-18 13:11:00,
2013-07-18 09:26:00,84.0,77.0,30.03,SSW,213,5.0,-999.0,78,-99.99,,,0.00,476,weatherlink.com 1.10,2013-07-18 13:26:00,
2013-07-18 09:41:00,85.1,77.0,30.03,SW,214,5.0,-999.0,76,-99.99,,,0.00,559,weatherlink.com 1.10,2013-07-18 13:41:00,
2013-07-18 09:56:00,85.3,76.0,30.03,WSW,254,5.0,-999.0,73,-99.99,,,0.00,606,weatherlink.com 1.10,2013-07-18 13:56:00,
2013-07-18 10:11:00,85.8,76.0,30.02,WNW,292,4.0,-999.0,72,-99.99,,,0.00,657,weatherlink.com 1.10,2013-07-18 14:11:00,
2013-07-18 10:26:00,86.3,76.0,30.02,WNW,288,5.0,-999.0,72,-99.99,,,0.00,696,weatherlink.com 1.10,2013-07-18 14:26:00,
2013-07-18 10:41:00,87.4,77.0,30.02,West,259,1.0,-999.0,71,-99.99,,,0.00,765,weatherlink.com 1.10,2013-07-18 14:41:00,
2013-07-18 10:56:00,88.5,77.0,30.02,West,281,5.0,-999.0,68,-99.99,,,0.00,777,weatherlink.com 1.10,2013-07-18 14:56:00,
2013-07-18 11:11:00,89.3,77.0,30.02,West,265,5.0,-999.0,67,-99.99,,,0.00,800,weatherlink.com 1.10,2013-07-18 15:11:00,
2013-07-18 11:27:00,90.4,77.0,30.02,WSW,238,5.0,-999.0,64,-99.99,,,0.00,803,weatherlink.com 1.10,2013-07-18 15:27:00,
2013-07-18 11:41:00,89.7,76.0,30.02,WSW,257,3.0,-999.0,64,-99.99,,,0.00,817,weatherlink.com 1.10,2013-07-18 15:41:00,
2013-07-18 11:57:00,89.8,76.0,30.01,West,274,6.0,-999.0,64,-99.99,,,0.00,958,weatherlink.com 1.10,2013-07-18 15:57:00,
2013-07-18 12:12:00,90.8,76.0,30.01,SW,229,5.0,-999.0,63,-99.99,,,0.00,346,weatherlink.com 1.10,2013-07-18 16:12:00,
2013-07-18 12:27:00,90.1,75.0,30.01,SW,236,5.0,-999.0,61,-99.99,,,0.00,214,weatherlink.com 1.10,2013-07-18 16:27:00,
2013-07-18 12:42:00,88.8,76.0,30.00,SW,222,4.0,-999.0,67,-99.99,,,0.00,105,weatherlink.com 1.10,2013-07-18 16:42:00,
2013-07-18 12:57:00,86.5,77.0,30.01,ESE,121,2.0,-999.0,74,-99.99,,,0.00,46,weatherlink.com 1.10,2013-07-18 16:57:00,
2013-07-18 13:12:00,81.3,74.0,30.00,WSW,254,3.0,-999.0,78,-99.99,,,0.08,139,weatherlink.com 1.10,2013-07-18 17:12:00,
2013-07-18 13:27:00,78.8,72.0,30.00,SW,220,0.0,-999.0,80,-99.99,,,0.08,128,weatherlink.com 1.10,2013-07-18 17:27:00,
2013-07-18 13:42:00,78.1,72.0,30.01,SW,219,1.0,-999.0,82,-99.99,,,0.10,74,weatherlink.com 1.10,2013-07-18 17:42:00,
2013-07-18 13:57:00,76.7,72.0,30.02,SW,232,1.0,-999.0,84,-99.99,,,0.12,58,weatherlink.com 1.10,2013-07-18 17:57:00,
2013-07-18 14:12:00,75.3,71.0,29.99,NE,43,1.0,-999.0,86,-99.99,,,0.26,120,weatherlink.com 1.10,2013-07-18 18:12:00,
2013-07-18 14:27:00,74.5,71.0,29.99,NW,323,1.0,-999.0,88,-99.99,,,0.26,541,weatherlink.com 1.10,2013-07-18 18:27:00,
2013-07-18 14:42:00,75.1,72.0,29.99,SE,146,1.0,-999.0,89,-99.99,,,0.26,135,weatherlink.com 1.10,2013-07-18 18:42:00,
2013-07-18 14:57:00,75.5,72.0,30.01,WSW,255,8.0,-999.0,89,-99.99,,,0.27,39,weatherlink.com 1.10,2013-07-18 18:57:00,
2013-07-18 15:12:00,74.9,72.0,29.98,South,182,5.0,-999.0,90,-99.99,,,0.37,137,weatherlink.com 1.10,2013-07-18 19:12:00,
2013-07-18 15:27:00,75.1,72.0,29.98,SW,231,2.0,-999.0,91,-99.99,,,0.37,359,weatherlink.com 1.10,2013-07-18 19:27:00,
2013-07-18 15:42:00,76.3,74.0,29.97,SW,232,0.0,-999.0,92,-99.99,,,0.37,659,weatherlink.com 1.10,2013-07-18 19:42:00,
2013-07-18 15:57:00,77.9,76.0,29.95,SW,232,0.0,-999.0,92,-99.99,,,0.37,559,weatherlink.com 1.10,2013-07-18 19:57:00,
2013-07-18 16:12:00,80.0,77.0,29.94,SW,232,0.0,-999.0,89,-99.99,,,0.37,346,weatherlink.com 1.10,2013-07-18 20:12:00,
2013-07-18 16:27:00,81.6,77.0,29.96,SSW,199,4.0,-999.0,86,-99.99,,,0.37,294,weatherlink.com 1.10,2013-07-18 20:27:00,
2013-07-18 16:42:00,82.3,77.0,29.96,South,190,0.0,-999.0,83,-99.99,,,0.37,693,weatherlink.com 1.10,2013-07-18 20:42:00,
2013-07-18 16:57:00,83.4,77.0,29.95,SE,140,4.0,-999.0,80,-99.99,,,0.37,476,weatherlink.com 1.10,2013-07-18 20:57:00,
2013-07-18 17:12:00,84.0,76.0,29.95,SE,146,5.0,-999.0,76,-99.99,,,0.37,557,weatherlink.com 1.10,2013-07-18 21:12:00,
2013-07-18 17:27:00,84.1,76.0,29.95,ESE,112,7.0,-999.0,77,-99.99,,,0.37,496,weatherlink.com 1.10,2013-07-18 21:27:00,
2013-07-18 17:42:00,83.6,77.0,29.96,SE,141,5.0,-999.0,81,-99.99,,,0.37,457,weatherlink.com 1.10,2013-07-18 21:42:00,
2013-07-18 17:57:00,84.0,78.0,29.96,SE,139,5.0,-999.0,81,-99.99,,,0.37,411,weatherlink.com 1.10,2013-07-18 21:57:00,
2013-07-18 18:12:00,84.1,77.0,29.95,SSE,158,1.0,-999.0,78,-99.99,,,0.37,211,weatherlink.com 1.10,2013-07-18 22:12:00,
2013-07-18 18:27:00,84.5,77.0,29.95,SE,146,2.0,-999.0,78,-99.99,,,0.37,257,weatherlink.com 1.10,2013-07-18 22:27:00,
2013-07-18 18:42:00,84.6,78.0,29.95,ESE,123,0.0,-999.0,80,-99.99,,,0.37,274,weatherlink.com 1.10,2013-07-18 22:42:00,
2013-07-18 18:57:00,84.7,78.0,29.94,ESE,123,0.0,-999.0,80,-99.99,,,0.37,181,weatherlink.com 1.10,2013-07-18 22:57:00,
2013-07-18 19:12:00,85.1,78.0,29.93,ESE,123,0.0,-999.0,79,-99.99,,,0.37,172,weatherlink.com 1.10,2013-07-18 23:12:00,
2013-07-18 19:27:00,84.5,77.0,29.93,SE,140,4.0,-999.0,77,-99.99,,,0.37,121,weatherlink.com 1.10,2013-07-18 23:27:00,
2013-07-18 19:42:00,83.7,76.0,29.92,SE,140,4.0,-999.0,77,-99.99,,,0.37,69,weatherlink.com 1.10,2013-07-18 23:42:00,
2013-07-18 19:57:00,82.9,76.0,29.92,SE,140,4.0,-999.0,80,-99.99,,,0.37,51,weatherlink.com 1.10,2013-07-18 23:57:00,
2013-07-18 20:12:00,81.5,74.0,29.91,SE,134,6.0,-999.0,79,-99.99,,,0.37,28,weatherlink.com 1.10,2013-07-19 00:12:00,
2013-07-18 20:27:00,81.2,74.0,29.91,SE,130,3.0,-999.0,79,-99.99,,,0.37,11,weatherlink.com 1.10,2013-07-19 00:27:00,
2013-07-18 20:42:00,80.0,74.0,29.91,SE,130,2.0,-999.0,82,-99.99,,,0.37,0,weatherlink.com 1.10,2013-07-19 00:42:00,
2013-07-18 20:57:00,79.7,74.0,29.91,SE,130,4.0,-999.0,83,-99.99,,,0.37,0,weatherlink.com 1.10,2013-07-19 00:57:00,
2013-07-18 21:12:00,79.1,74.0,29.91,ESE,121,4.0,-999.0,84,-99.99,,,0.37,0,weatherlink.com 1.10,2013-07-19 01:12:00,
2013-07-18 21:27:00,78.5,74.0,29.92,ESE,117,2.0,-999.0,86,-99.99,,,0.37,0,weatherlink.com 1.10,2013-07-19 01:27:00,
2013-07-18 21:42:00,78.2,74.0,29.92,SE,124,4.0,-999.0,88,-99.99,,,0.37,0,weatherlink.com 1.10,2013-07-19 01:42:00,
2013-07-18 21:57:00,78.0,74.0,29.92,SE,126,2.0,-999.0,88,-99.99,,,0.37,0,weatherlink.com 1.10,2013-07-19 01:57:00,
2013-07-18 22:12:00,77.8,74.0,29.92,SE,126,4.0,-999.0,89,-99.99,,,0.37,0,weatherlink.com 1.10,2013-07-19 02:12:00,
2013-07-18 22:27:00,77.6,74.0,29.91,SE,126,1.0,-999.0,89,-99.99,,,0.37,0,weatherlink.com 1.10,2013-07-19 02:27:00,
2013-07-18 22:42:00,77.4,74.0,29.91,SE,126,2.0,-999.0,89,-99.99,,,0.37,0,weatherlink.com 1.10,2013-07-19 02:42:00,
2013-07-18 22:57:00,77.4,74.0,29.91,SE,126,0.0,-999.0,89,-99.99,,,0.37,0,weatherlink.com 1.10,2013-07-19 02:57:00,
2013-07-18 23:12:00,77.6,74.0,29.90,SE,126,1.0,-999.0,89,-99.99,,,0.37,0,weatherlink.com 1.10,2013-07-19 03:12:00,
2013-07-18 23:27:00,77.7,74.0,29.91,SSE,150,0.0,-999.0,88,-99.99,,,0.37,0,weatherlink.com 1.10,2013-07-19 03:27:00,
2013-07-18 23:42:00,77.9,74.0,29.91,SSE,150,0.0,-999.0,87,-99.99,,,0.37,0,weatherlink.com 1.10,2013-07-19 03:42:00,
2013-07-18 23:57:00,77.8,73.0,29.91,SSE,150,2.0,-999.0,86,-99.99,,,0.37,0,weatherlink.com 1.10,2013-07-19 03:57:00,